Terminal Aerodrome Forecast
Issued by NWS

Home | Current Version | Previous Version | Text Only | Print | Product List | Glossary On
Versions: 1 2 3 4 5 6 7 8 9 10 11 12 13 14 15 16
000
FTUS41 KPHI 212300
TAFPNE
TAF
KPNE 212338Z 2200/2224 33005KT P6SM BKN050
     FM220600 03008KT 6SM -RA SCT025 OVC040
     FM221100 03010KT 4SM -RA BR SCT007 OVC025
     FM221500 03012G20KT 4SM RA BR OVC012=

USA.gov is the U.S. government's official web portal to all federal, state and local government web resources and services.